Time;durP1;ratioP1;P1;durP2;ratioP2;P2;SDS_P1;SDS_P2;PMS_P1;PMS_P2;Temp;Humidity;BMP_temperature;BMP_pressure;BME280_temperature;BME280_humidity;BME280_pressure;Samples;Min_cycle;Max_cycle;Signal;HPM_P1;HPM_P2
2021/05/17 00:02:20;;;;;;;4.05;1.83;;;11.50;91.20;;;;;;5013379;28;20129;-90
2021/05/17 00:04:46;;;;;;;4.07;1.85;;;11.50;91.20;;;;;;5012432;28;20137;-89
2021/05/17 00:07:12;;;;;;;4.60;1.90;;;11.50;91.20;;;;;;5013145;28;20046;-89
2021/05/17 00:09:39;;;;;;;5.80;2.03;;;11.40;91.20;;;;;;5013489;28;20050;-89
2021/05/17 00:12:06;;;;;;;4.00;1.73;;;11.50;91.10;;;;;;5012722;28;20080;-90
2021/05/17 00:14:32;;;;;;;6.07;2.17;;;11.40;91.20;;;;;;5013515;28;20410;-90
2021/05/17 00:16:58;;;;;;;3.33;1.75;;;11.40;91.40;;;;;;5012937;28;20073;-90
2021/05/17 00:19:24;;;;;;;3.65;1.80;;;11.40;91.20;;;;;;5013320;28;20410;-90
2021/05/17 00:21:51;;;;;;;4.45;2.08;;;11.40;91.10;;;;;;5013150;28;20540;-91
2021/05/17 00:24:18;;;;;;;3.85;1.70;;;11.40;91.10;;;;;;5012340;28;20104;-89
2021/05/17 00:26:46;;;;;;;4.47;1.85;;;11.30;91.20;;;;;;5013306;28;20103;-89
2021/05/17 00:29:13;;;;;;;4.30;1.90;;;11.30;91.10;;;;;;5013334;28;20046;-90
2021/05/17 00:31:40;;;;;;;6.70;2.28;;;11.30;91.20;;;;;;5012198;28;20053;-86
2021/05/17 00:34:07;;;;;;;5.10;2.17;;;11.30;91.00;;;;;;5015678;28;20401;-87
2021/05/17 00:36:33;;;;;;;8.77;2.70;;;11.40;91.00;;;;;;5016325;28;20050;-86
2021/05/17 00:39:01;;;;;;;5.72;2.67;;;11.30;90.90;;;;;;5015897;28;20157;-86
2021/05/17 00:41:28;;;;;;;5.65;2.28;;;11.30;91.00;;;;;;5016533;28;20057;-85
2021/05/17 00:43:54;;;;;;;4.15;2.00;;;11.30;91.10;;;;;;5016284;28;20409;-84
2021/05/17 00:46:23;;;;;;;5.22;2.00;;;11.30;91.10;;;;;;5015661;28;20049;-85
2021/05/17 00:48:49;;;;;;;5.20;2.35;;;11.30;91.10;;;;;;5016907;28;20056;-85
2021/05/17 00:51:17;;;;;;;4.13;2.03;;;11.20;91.10;;;;;;5016497;28;20042;-86
2021/05/17 00:53:43;;;;;;;6.18;2.20;;;11.20;91.00;;;;;;5015865;28;20050;-86
2021/05/17 00:56:10;;;;;;;5.20;2.10;;;11.20;90.80;;;;;;5016417;28;20042;-85
2021/05/17 00:58:36;;;;;;;5.45;2.85;;;11.20;91.00;;;;;;5016123;28;20058;-86
2021/05/17 01:01:04;;;;;;;4.93;2.28;;;11.20;91.00;;;;;;5015254;28;20379;-86
2021/05/17 01:03:30;;;;;;;5.32;2.40;;;11.20;91.00;;;;;;5015934;28;20050;-86
2021/05/17 01:05:58;;;;;;;4.90;2.35;;;11.20;91.00;;;;;;5016208;28;20056;-86
2021/05/17 01:08:32;;;;;;;6.32;2.45;;;11.10;91.10;;;;;;5015195;28;20516;-85
2021/05/17 01:11:03;;;;;;;5.10;2.30;;;11.10;91.30;;;;;;5015833;28;20497;-86
2021/05/17 01:13:32;;;;;;;5.10;2.20;;;11.10;91.40;;;;;;5015137;28;20552;-86
2021/05/17 01:16:00;;;;;;;4.75;2.40;;;11.10;91.40;;;;;;5015753;28;20516;-86
2021/05/17 01:18:27;;;;;;;8.07;2.45;;;11.10;91.60;;;;;;5015871;28;20050;-85
2021/05/17 01:20:57;;;;;;;5.72;2.63;;;11.10;91.60;;;;;;5015041;28;20089;-86
2021/05/17 01:25:54;;;;;;;4.57;2.47;;;11.10;91.70;;;;;;5015765;28;20045;-86
2021/05/17 01:28:23;;;;;;;5.05;2.22;;;11.10;92.10;;;;;;5014817;28;20441;-86
2021/05/17 01:30:50;;;;;;;5.43;2.40;;;11.10;91.70;;;;;;5015648;28;20046;-86
2021/05/17 01:33:17;;;;;;;5.28;2.33;;;11.10;92.10;;;;;;5015499;28;20472;-86
2021/05/17 01:35:47;;;;;;;5.30;2.35;;;11.10;91.80;;;;;;5014833;28;20045;-86
2021/05/17 01:38:15;;;;;;;3.95;2.13;;;11.10;91.70;;;;;;5015572;28;20084;-86
2021/05/17 01:40:46;;;;;;;5.10;2.50;;;11.10;91.70;;;;;;5015328;28;20046;-86
2021/05/17 01:43:14;;;;;;;5.80;2.70;;;11.10;91.90;;;;;;5014639;28;20077;-86
2021/05/17 01:45:41;;;;;;;5.03;2.38;;;11.10;92.00;;;;;;5014716;28;20414;-86
2021/05/17 01:48:07;;;;;;;5.07;2.60;;;11.10;91.90;;;;;;5015370;28;20046;-86
2021/05/17 01:50:34;;;;;;;5.50;2.38;;;11.10;91.90;;;;;;5014634;28;20046;-86
2021/05/17 01:53:00;;;;;;;4.45;2.22;;;11.00;91.70;;;;;;5015175;28;20100;-86
2021/05/17 01:55:26;;;;;;;4.78;2.45;;;11.00;91.70;;;;;;5014270;28;20060;-86
2021/05/17 01:58:23;;;;;;;5.35;2.60;;;11.00;91.70;;;;;;5014889;28;20057;-86
2021/05/17 02:00:50;;;;;;;4.60;2.70;;;11.00;91.50;;;;;;5014957;28;20409;-86
2021/05/17 02:03:16;;;;;;;5.40;2.75;;;10.90;91.60;;;;;;5014230;28;20137;-87
2021/05/17 02:05:46;;;;;;;6.47;2.70;;;10.90;91.40;;;;;;5014952;28;20057;-86
2021/05/17 02:08:12;;;;;;;6.28;3.03;;;10.90;91.50;;;;;;5014976;28;20052;-86
2021/05/17 02:10:44;;;;;;;5.00;3.10;;;10.90;91.50;;;;;;5013986;28;20501;-86
2021/05/17 02:13:17;;;;;;;5.78;2.58;;;10.90;91.70;;;;;;5014839;28;20556;-86
2021/05/17 02:15:44;;;;;;;5.45;2.90;;;10.90;91.40;;;;;;5014876;28;20533;-86
2021/05/17 02:18:10;;;;;;;7.18;3.85;;;10.80;91.30;;;;;;5013745;28;20104;-87
2021/05/17 02:20:38;;;;;;;5.40;2.97;;;10.90;91.30;;;;;;5014096;28;20045;-86
2021/05/17 02:23:05;;;;;;;4.60;2.75;;;10.80;91.30;;;;;;5014707;28;20050;-86
2021/05/17 02:25:31;;;;;;;7.50;3.47;;;10.90;91.20;;;;;;5013905;28;20041;-86
2021/05/17 02:27:57;;;;;;;7.68;4.43;;;10.80;91.40;;;;;;5014364;28;20050;-86
2021/05/17 02:30:24;;;;;;;8.27;4.40;;;10.80;91.30;;;;;;5014569;28;20042;-87
2021/05/17 02:32:51;;;;;;;5.43;3.20;;;10.80;91.40;;;;;;5013788;28;20100;-87
2021/05/17 02:35:20;;;;;;;6.47;3.45;;;10.80;91.20;;;;;;5014517;28;20453;-87
2021/05/17 02:37:46;;;;;;;7.10;3.50;;;10.80;91.50;;;;;;5013585;28;20050;-87
2021/05/17 02:40:13;;;;;;;5.75;3.65;;;10.80;91.40;;;;;;5014301;28;20050;-87
2021/05/17 02:42:43;;;;;;;6.10;3.60;;;10.80;91.60;;;;;;5014323;28;20076;-87
2021/05/17 02:45:10;;;;;;;9.25;4.43;;;10.70;91.60;;;;;;5012797;28;20145;-87
2021/05/17 02:47:37;;;;;;;6.40;3.70;;;10.80;91.50;;;;;;5014124;28;20153;-87
2021/05/17 02:50:05;;;;;;;6.40;4.00;;;10.80;91.60;;;;;;5014368;28;20053;-87
2021/05/17 02:52:31;;;;;;;10.38;5.80;;;10.80;91.50;;;;;;5013376;28;20073;-86
2021/05/17 02:55:09;;;;;;;8.82;4.97;;;10.80;91.40;;;;;;5014058;28;20133;-88
2021/05/17 02:57:39;;;;;;;7.72;4.45;;;10.80;91.30;;;;;;5012689;28;20153;-88
2021/05/17 03:00:08;;;;;;;7.32;4.32;;;10.70;91.20;;;;;;5013133;28;20046;-87
2021/05/17 03:03:00;;;;;;;9.45;4.57;;;10.70;91.30;;;;;;5014015;28;20041;-88
2021/05/17 03:05:28;;;;;;;8.00;4.78;;;10.70;91.50;;;;;;5014086;28;20068;-88
2021/05/17 03:08:01;;;;;;;7.05;4.03;;;10.80;91.40;;;;;;5013239;28;20052;-88
2021/05/17 03:10:28;;;;;;;7.57;4.30;;;10.70;91.40;;;;;;5013959;28;20058;-87
2021/05/17 03:12:57;;;;;;;9.27;6.00;;;10.70;91.50;;;;;;5013205;28;20383;-88
2021/05/17 03:15:26;;;;;;;10.27;6.30;;;10.70;91.50;;;;;;5013844;28;20050;-88
2021/05/17 03:17:56;;;;;;;7.95;5.10;;;10.70;91.40;;;;;;5013716;28;20391;-88
2021/05/17 03:20:23;;;;;;;8.23;4.93;;;10.70;91.40;;;;;;5013033;28;20046;-88
2021/05/17 03:22:53;;;;;;;8.05;5.15;;;10.70;91.50;;;;;;5013629;28;20065;-87
2021/05/17 03:25:25;;;;;;;7.05;5.10;;;10.70;91.40;;;;;;5014838;28;20100;-88
2021/05/17 03:27:51;;;;;;;11.50;6.45;;;10.70;91.30;;;;;;5012831;28;20504;-88
2021/05/17 03:30:17;;;;;;;6.50;4.53;;;10.70;91.30;;;;;;5013439;28;20061;-88
2021/05/17 03:32:43;;;;;;;7.30;4.82;;;10.70;91.50;;;;;;5013607;28;20057;-88
2021/05/17 03:35:09;;;;;;;8.80;6.30;;;10.70;91.60;;;;;;5012721;28;20049;-88
2021/05/17 03:37:35;;;;;;;7.25;4.40;;;10.70;91.60;;;;;;5013449;28;20071;-87
2021/05/17 03:40:01;;;;;;;9.85;6.43;;;10.60;91.30;;;;;;5013731;28;20042;-87
2021/05/17 03:42:27;;;;;;;11.35;6.95;;;10.60;91.40;;;;;;5012931;28;20382;-88
2021/05/17 03:44:52;;;;;;;11.73;7.05;;;10.60;91.40;;;;;;5013583;28;20056;-88
2021/05/17 03:47:18;;;;;;;8.18;5.75;;;10.60;91.40;;;;;;5013596;28;20046;-88
2021/05/17 03:49:44;;;;;;;6.50;5.03;;;10.60;91.40;;;;;;5012604;28;20069;-88
2021/05/17 03:52:17;;;;;;;8.23;5.13;;;10.60;91.30;;;;;;5013328;28;20046;-87
2021/05/17 03:54:43;;;;;;;8.70;5.03;;;10.60;91.40;;;;;;5013194;28;20116;-87
2021/05/17 03:57:09;;;;;;;8.27;5.65;;;10.60;91.60;;;;;;5012338;28;20053;-87
2021/05/17 03:59:36;;;;;;;8.00;5.78;;;10.60;91.80;;;;;;5013780;28;20383;-87
2021/05/17 04:02:02;;;;;;;8.05;5.53;;;10.60;91.80;;;;;;5012933;28;20128;-88
2021/05/17 04:04:31;;;;;;;7.68;5.20;;;10.60;92.00;;;;;;5013190;28;20404;-88
2021/05/17 04:07:13;;;;;;;8.18;5.47;;;10.60;91.80;;;;;;5013398;28;20046;-87
2021/05/17 04:14:56;;;;;;;7.43;4.97;;;10.60;92.10;;;;;;5016976;28;20070;-88
2021/05/17 04:17:22;;;;;;;8.23;5.95;;;10.60;92.00;;;;;;5016051;28;20127;-88
2021/05/17 04:19:48;;;;;;;8.02;5.97;;;10.60;91.90;;;;;;5017061;28;20046;-88
2021/05/17 04:22:15;;;;;;;8.40;5.30;;;10.60;92.10;;;;;;5017002;28;20087;-88
2021/05/17 04:24:40;;;;;;;7.72;5.10;;;10.60;92.00;;;;;;5016092;28;20046;-88
2021/05/17 04:27:06;;;;;;;8.30;5.80;;;10.60;91.80;;;;;;5016912;28;20050;-88
2021/05/17 04:29:32;;;;;;;7.95;5.28;;;10.60;91.80;;;;;;5016621;28;20100;-88
2021/05/17 04:31:57;;;;;;;8.35;5.80;;;10.60;91.70;;;;;;5015708;28;20054;-88
2021/05/17 04:34:23;;;;;;;8.90;5.90;;;10.60;92.20;;;;;;5016726;28;20070;-88
2021/05/17 04:36:49;;;;;;;7.68;5.40;;;10.60;91.90;;;;;;5016634;28;20149;-88
2021/05/17 04:39:14;;;;;;;10.18;5.60;;;10.60;92.00;;;;;;5015921;28;20046;-88
2021/05/17 04:41:40;;;;;;;8.63;5.32;;;10.60;92.00;;;;;;5016650;28;20478;-88
2021/05/17 04:44:06;;;;;;;8.77;5.47;;;10.60;91.90;;;;;;5016532;28;20058;-88
2021/05/17 04:46:32;;;;;;;8.70;5.78;;;10.60;91.90;;;;;;5015950;28;20042;-88
2021/05/17 04:48:57;;;;;;;9.38;6.38;;;10.60;91.90;;;;;;5016559;28;20057;-88
2021/05/17 04:51:24;;;;;;;8.43;6.15;;;10.60;92.00;;;;;;5015535;28;20406;-89
2021/05/17 04:53:52;;;;;;;7.57;5.40;;;10.60;92.00;;;;;;5016212;28;20413;-88
2021/05/17 04:56:19;;;;;;;14.00;8.38;;;10.60;91.90;;;;;;5016311;28;20050;-88
2021/05/17 04:58:44;;;;;;;9.93;6.65;;;10.60;91.90;;;;;;5015190;28;20058;-88
2021/05/17 05:01:10;;;;;;;12.82;8.05;;;10.60;91.90;;;;;;5016338;28;20053;-88
2021/05/17 05:03:36;;;;;;;10.13;7.38;;;10.60;92.00;;;;;;5016201;28;20134;-88
2021/05/17 05:06:02;;;;;;;11.20;8.52;;;10.60;92.00;;;;;;5015426;28;20045;-88
2021/05/17 05:08:28;;;;;;;10.10;7.60;;;10.60;92.00;;;;;;5016098;28;20482;-88
2021/05/17 05:10:54;;;;;;;10.27;7.32;;;10.60;91.90;;;;;;5015972;28;20080;-88
2021/05/17 05:13:20;;;;;;;14.00;9.27;;;10.60;92.00;;;;;;5014986;28;20048;-88
2021/05/17 05:15:51;;;;;;;13.27;8.95;;;10.60;92.10;;;;;;5015781;28;20137;-88
2021/05/17 05:18:16;;;;;;;10.70;7.22;;;10.60;92.20;;;;;;5016038;28;20085;-88
2021/05/17 05:20:43;;;;;;;13.88;9.80;;;10.60;92.10;;;;;;5013910;28;20108;-88
2021/05/17 05:23:13;;;;;;;12.93;9.88;;;10.60;92.30;;;;;;5015846;28;20050;-88
2021/05/17 05:28:25;;;;;;;10.02;7.35;;;10.60;92.50;;;;;;5015017;28;20073;-88
2021/05/17 05:33:19;;;;;;;9.45;6.63;;;10.60;92.50;;;;;;5015653;28;20056;-88
2021/05/17 05:35:46;;;;;;;12.18;9.00;;;10.60;92.50;;;;;;5014916;28;20045;-88
2021/05/17 05:38:12;;;;;;;9.77;7.20;;;10.60;92.50;;;;;;5015643;28;20057;-88
2021/05/17 05:40:38;;;;;;;13.02;8.93;;;10.70;92.50;;;;;;5014419;28;20042;-88
2021/05/17 05:43:03;;;;;;;13.50;9.93;;;10.70;92.60;;;;;;5015463;28;20050;-88
2021/05/17 05:45:32;;;;;;;15.38;10.32;;;10.70;92.70;;;;;;5015405;28;20060;-88
2021/05/17 05:47:57;;;;;;;10.45;7.47;;;10.70;92.80;;;;;;5014521;28;20073;-88
2021/05/17 05:50:23;;;;;;;9.85;7.95;;;10.70;92.70;;;;;;5015266;28;20080;-88
2021/05/17 05:52:49;;;;;;;12.27;9.80;;;10.70;92.60;;;;;;5015292;28;20058;-87
2021/05/17 05:55:16;;;;;;;10.05;7.90;;;10.70;92.70;;;;;;5014162;28;20054;-87
2021/05/17 05:57:42;;;;;;;13.80;9.25;;;10.80;92.80;;;;;;5014936;28;20045;-87
2021/05/17 06:00:11;;;;;;;13.10;9.95;;;10.80;92.90;;;;;;5015143;28;20129;-88
2021/05/17 06:02:38;;;;;;;12.55;9.73;;;10.80;93.10;;;;;;5014492;28;20057;-87
2021/05/17 06:05:06;;;;;;;8.95;7.65;;;10.80;93.10;;;;;;5014916;28;20054;-88
2021/05/17 06:07:31;;;;;;;13.57;9.23;;;10.80;93.00;;;;;;5014816;28;20050;-88
2021/05/17 06:09:57;;;;;;;13.68;8.48;;;10.80;93.00;;;;;;5014147;28;20056;-87
2021/05/17 06:12:23;;;;;;;10.77;7.80;;;10.90;93.00;;;;;;5015018;28;20136;-88
2021/05/17 06:14:53;;;;;;;8.85;7.45;;;10.90;92.90;;;;;;5014962;28;20050;-88
2021/05/17 06:17:19;;;;;;;9.95;7.43;;;10.90;92.80;;;;;;5013902;28;20069;-87
2021/05/17 06:19:45;;;;;;;11.18;8.18;;;10.90;92.80;;;;;;5014765;28;20128;-88
2021/05/17 06:22:12;;;;;;;10.40;7.32;;;10.90;92.90;;;;;;5014705;28;20049;-88
2021/05/17 06:24:38;;;;;;;10.48;8.40;;;10.90;92.80;;;;;;5014980;28;20045;-87
2021/05/17 06:27:04;;;;;;;11.98;8.00;;;11.00;92.80;;;;;;5015750;28;20506;-88
2021/05/17 06:29:30;;;;;;;10.10;8.13;;;11.00;92.90;;;;;;5014657;28;20056;-88
2021/05/17 06:31:56;;;;;;;11.48;8.48;;;11.00;92.80;;;;;;5012444;28;20057;-87
2021/05/17 06:34:22;;;;;;;11.52;9.80;;;11.00;92.80;;;;;;5014611;28;20470;-88
2021/05/17 06:36:48;;;;;;;10.27;8.43;;;11.00;92.90;;;;;;5013317;28;20058;-88
2021/05/17 06:39:14;;;;;;;9.73;7.47;;;11.00;93.00;;;;;;5014520;28;20042;-87
2021/05/17 06:41:41;;;;;;;12.73;8.18;;;11.10;92.90;;;;;;5014231;28;20506;-88
2021/05/17 06:44:07;;;;;;;13.63;9.10;;;11.10;93.00;;;;;;5013451;28;20061;-88
2021/05/17 06:46:33;;;;;;;9.90;7.25;;;11.10;93.00;;;;;;5014356;28;20128;-88
2021/05/17 06:48:59;;;;;;;11.93;9.00;;;11.10;92.90;;;;;;5014300;28;20069;-88
2021/05/17 06:51:25;;;;;;;10.20;7.90;;;11.10;92.80;;;;;;5013307;28;20621;-88
2021/05/17 06:53:55;;;;;;;13.18;9.55;;;11.20;92.80;;;;;;5014185;28;20140;-88
2021/05/17 06:56:28;;;;;;;10.57;8.50;;;11.20;93.00;;;;;;5014204;28;20072;-88
2021/05/17 06:59:00;;;;;;;13.55;9.63;;;11.20;93.00;;;;;;5013319;28;20188;-88
2021/05/17 07:01:29;;;;;;;14.57;10.27;;;11.30;93.00;;;;;;5014179;28;20058;-89
2021/05/17 07:03:55;;;;;;;12.52;9.57;;;11.30;93.20;;;;;;5013792;28;20049;-88
2021/05/17 07:06:24;;;;;;;13.73;10.05;;;11.30;93.10;;;;;;5013304;28;20153;-88
2021/05/17 07:14:06;;;;;;;13.80;10.00;;;11.40;93.00;;;;;;5013041;28;20132;-88
2021/05/17 07:16:32;;;;;;;12.20;9.70;;;11.40;93.00;;;;;;5013833;28;20184;-88
2021/05/17 07:18:58;;;;;;;13.15;9.65;;;11.40;93.00;;;;;;5013043;28;20497;-88
2021/05/17 07:24:10;;;;;;;13.98;9.98;;;11.50;93.00;;;;;;5013757;28;20050;-89
2021/05/17 07:26:35;;;;;;;11.05;8.40;;;11.50;93.10;;;;;;5012867;28;20046;-89
2021/05/17 07:29:03;;;;;;;10.80;7.95;;;11.50;93.00;;;;;;5013827;28;20493;-89
2021/05/17 07:31:29;;;;;;;13.65;9.73;;;11.50;92.90;;;;;;5013567;28;20508;-87
2021/05/17 07:33:54;;;;;;;13.88;10.27;;;11.50;92.90;;;;;;5012996;28;20050;-88
2021/05/17 07:36:20;;;;;;;14.85;9.60;;;11.50;93.10;;;;;;5013565;28;20049;-89
2021/05/17 07:38:46;;;;;;;14.23;10.23;;;11.50;93.10;;;;;;5013630;28;20406;-89
2021/05/17 07:41:14;;;;;;;13.27;9.55;;;11.60;93.20;;;;;;5012662;28;20084;-88
2021/05/17 07:43:39;;;;;;;15.68;11.38;;;11.60;93.30;;;;;;5015528;28;20050;-88
2021/05/17 07:46:05;;;;;;;13.13;10.70;;;11.60;93.30;;;;;;5017668;28;20421;-88
2021/05/17 07:48:30;;;;;;;12.45;10.32;;;11.70;93.40;;;;;;5016676;28;20080;-88
2021/05/17 07:50:56;;;;;;;13.15;10.30;;;11.60;93.40;;;;;;5017636;28;20055;-88
2021/05/17 07:53:22;;;;;;;13.20;9.90;;;11.70;93.30;;;;;;5017568;28;20050;-88
2021/05/17 07:55:52;;;;;;;12.65;9.60;;;11.70;93.20;;;;;;5016297;28;20069;-88
2021/05/17 07:58:18;;;;;;;13.93;10.82;;;11.80;93.20;;;;;;5017175;28;20064;-89
2021/05/17 08:00:44;;;;;;;15.93;12.77;;;11.80;93.60;;;;;;5017427;28;20049;-88
2021/05/17 08:03:10;;;;;;;16.88;10.95;;;11.80;93.40;;;;;;5016542;28;20042;-88
2021/05/17 08:05:35;;;;;;;15.13;10.80;;;11.90;93.40;;;;;;5017353;28;20596;-88
2021/05/17 08:08:01;;;;;;;14.73;11.77;;;11.90;93.30;;;;;;5017253;28;20132;-88
2021/05/17 08:10:27;;;;;;;13.75;9.65;;;11.90;93.20;;;;;;5016349;28;20052;-87
2021/05/17 08:12:53;;;;;;;15.43;11.95;;;12.00;93.10;;;;;;5017220;28;20065;-87
2021/05/17 08:15:19;;;;;;;17.35;12.48;;;12.00;93.10;;;;;;5016243;28;20128;-88
2021/05/17 08:17:45;;;;;;;14.82;12.48;;;12.00;93.20;;;;;;5017139;28;20133;-88
2021/05/17 08:20:11;;;;;;;16.67;11.90;;;12.10;93.40;;;;;;5016881;28;20050;-88
2021/05/17 08:22:37;;;;;;;19.58;12.80;;;12.20;93.50;;;;;;5016199;28;20054;-89
2021/05/17 08:25:05;;;;;;;13.60;9.52;;;12.30;93.60;;;;;;5016881;28;20049;-88
2021/05/17 08:27:31;;;;;;;14.40;8.98;;;12.40;93.50;;;;;;5016983;28;20053;-88
2021/05/17 08:29:56;;;;;;;13.35;9.30;;;12.50;93.10;;;;;;5016237;28;20402;-89
2021/05/17 08:32:22;;;;;;;15.70;9.68;;;12.60;92.90;;;;;;5016724;28;20399;-88
2021/05/17 08:34:48;;;;;;;11.95;8.77;;;12.70;92.70;;;;;;5016286;28;20563;-88
2021/05/17 08:37:14;;;;;;;15.77;9.35;;;12.80;92.60;;;;;;5015651;28;20046;-89
2021/05/17 08:39:40;;;;;;;12.27;9.23;;;12.80;92.70;;;;;;5016693;28;20057;-89
2021/05/17 08:42:07;;;;;;;11.77;8.73;;;12.90;92.30;;;;;;5016634;28;20073;-88
2021/05/17 08:44:35;;;;;;;13.98;8.90;;;12.90;92.20;;;;;;5015829;28;20409;-88
2021/05/17 08:47:01;;;;;;;11.65;8.25;;;13.00;92.10;;;;;;5016650;28;20049;-88
2021/05/17 08:49:27;;;;;;;12.30;8.48;;;13.00;91.90;;;;;;5016319;28;20053;-88
2021/05/17 08:51:52;;;;;;;12.27;8.40;;;13.00;91.90;;;;;;5015549;28;20406;-88
2021/05/17 08:54:18;;;;;;;13.70;8.60;;;13.10;91.80;;;;;;5016005;28;20383;-88
2021/05/17 08:56:46;;;;;;;10.65;8.85;;;13.10;91.70;;;;;;5016191;28;20482;-88
2021/05/17 08:59:15;;;;;;;12.43;8.23;;;13.20;91.80;;;;;;5015625;28;20054;-88
2021/05/17 09:01:41;;;;;;;12.23;8.32;;;13.20;91.70;;;;;;5016180;28;20049;-88
2021/05/17 09:04:11;;;;;;;10.27;8.02;;;13.20;91.60;;;;;;5016287;28;20053;-88
2021/05/17 09:06:43;;;;;;;12.02;7.95;;;13.20;91.50;;;;;;5015758;28;20050;-89
2021/05/17 09:09:23;;;;;;;11.32;6.88;;;13.20;91.40;;;;;;5016236;28;20492;-88
2021/05/17 09:11:50;;;;;;;5.22;3.08;;;13.30;91.40;;;;;;5015176;28;20058;-88
2021/05/17 09:14:17;;;;;;;8.90;4.72;;;13.30;91.20;;;;;;5015902;28;20433;-88
2021/05/17 09:16:47;;;;;;;7.28;3.00;;;13.30;91.10;;;;;;5016082;28;20053;-87
2021/05/17 09:19:14;;;;;;;7.68;2.97;;;13.20;91.10;;;;;;5015143;28;20053;-87
2021/05/17 09:22:01;;;;;;;7.38;5.32;;;13.20;91.10;;;;;;5016027;28;20049;-87
2021/05/17 09:24:36;;;;;;;10.27;5.03;;;13.10;91.20;;;;;;5015831;28;20153;-87
2021/05/17 09:27:05;;;;;;;7.50;5.20;;;13.10;91.40;;;;;;5014734;28;20383;-87
2021/05/17 09:29:44;;;;;;;7.05;4.63;;;13.10;91.50;;;;;;5015747;28;20053;-88
2021/05/17 09:32:31;;;;;;;6.47;4.25;;;13.10;91.90;;;;;;5015298;28;20484;-88
2021/05/17 09:35:06;;;;;;;4.97;2.38;;;13.10;91.50;;;;;;5014805;28;20123;-88
2021/05/17 09:37:47;;;;;;;3.25;1.65;;;13.10;91.60;;;;;;5015448;28;20088;-87
2021/05/17 09:40:28;;;;;;;5.15;2.15;;;13.10;91.70;;;;;;5014708;28;20425;-88
2021/05/17 09:43:01;;;;;;;5.53;3.05;;;13.10;91.70;;;;;;5015506;28;20049;-88
2021/05/17 09:45:35;;;;;;;3.42;1.67;;;13.10;91.70;;;;;;5015449;28;20058;-88
2021/05/17 09:48:02;;;;;;;3.88;1.30;;;13.10;91.90;;;;;;5014529;28;20053;-88
2021/05/17 09:50:28;;;;;;;3.83;1.95;;;13.20;91.80;;;;;;5015014;28;20566;-87
2021/05/17 09:52:53;;;;;;;4.82;2.83;;;13.20;91.70;;;;;;5015343;28;20053;-88
2021/05/17 09:55:19;;;;;;;5.32;3.17;;;13.20;91.70;;;;;;5014632;28;20049;-88
2021/05/17 09:57:47;;;;;;;5.10;2.97;;;13.30;91.70;;;;;;5015032;28;20054;-88
2021/05/17 10:00:18;;;;;;;1.83;0.98;;;13.30;91.60;;;;;;5015208;28;20054;-88
2021/05/17 10:02:51;;;;;;;4.75;2.83;;;13.40;91.50;;;;;;5014294;28;20095;-87
2021/05/17 10:05:30;;;;;;;2.80;1.55;;;13.40;91.40;;;;;;5014607;28;20076;-89
2021/05/17 10:07:58;;;;;;;0.93;0.50;;;13.50;91.20;;;;;;5014174;28;20050;-89
2021/05/17 10:10:25;;;;;;;1.70;1.05;;;13.50;91.00;;;;;;5014909;28;20070;-89
2021/05/17 10:12:52;;;;;;;2.00;0.80;;;13.50;90.60;;;;;;5014957;28;20054;-89
2021/05/17 10:15:19;;;;;;;2.17;0.98;;;13.60;90.30;;;;;;5014076;28;20100;-89
2021/05/17 10:17:45;;;;;;;2.70;1.48;;;13.70;90.10;;;;;;5014895;28;20054;-89
2021/05/17 10:20:15;;;;;;;3.50;1.83;;;13.70;90.30;;;;;;5014880;28;20137;-88
2021/05/17 10:22:42;;;;;;;2.17;1.27;;;13.80;90.30;;;;;;5013797;28;20041;-89
2021/05/17 10:25:09;;;;;;;2.90;1.50;;;13.90;90.50;;;;;;5014692;28;20410;-89
2021/05/17 10:27:45;;;;;;;4.43;1.50;;;14.00;90.40;;;;;;5014279;28;20461;-89
2021/05/17 10:30:12;;;;;;;4.05;1.95;;;14.10;90.20;;;;;;5013669;28;20413;-89
2021/05/17 10:32:40;;;;;;;3.10;1.70;;;14.20;90.40;;;;;;5014666;28;20042;-88
2021/05/17 10:35:12;;;;;;;5.07;2.40;;;14.30;90.10;;;;;;5014452;28;20490;-89
2021/05/17 10:37:38;;;;;;;3.60;1.90;;;14.40;90.10;;;;;;5013843;28;20053;-88
2021/05/17 10:40:05;;;;;;;4.30;1.92;;;14.50;89.80;;;;;;5014527;28;20409;-89
2021/05/17 10:42:51;;;;;;;3.92;2.05;;;14.60;89.00;;;;;;5014408;28;20525;-89
2021/05/17 10:48:14;;;;;;;4.45;2.00;;;14.70;88.80;;;;;;4985946;28;20375;-89
2021/05/17 10:50:42;;;;;;;4.55;2.30;;;14.80;88.20;;;;;;5013473;28;20399;-89
2021/05/17 10:53:40;;;;;;;4.95;2.10;;;14.80;88.30;;;;;;5013881;28;20053;-89
2021/05/17 10:56:06;;;;;;;4.68;2.50;;;14.90;87.80;;;;;;5014271;28;20058;-88
2021/05/17 11:01:53;;;;;;;4.05;2.45;;;15.00;87.50;;;;;;4997179;28;20053;-89
2021/05/17 11:04:30;;;;;;;4.00;2.50;;;15.00;87.60;;;;;;5013124;28;20053;-88
2021/05/17 11:07:28;;;;;;;5.03;2.83;;;15.00;87.40;;;;;;5013880;28;20068;-90
2021/05/17 11:10:00;;;;;;;5.68;3.10;;;15.00;87.70;;;;;;5013933;28;20107;-90
2021/05/17 11:12:25;;;;;;;4.50;2.50;;;15.00;88.00;;;;;;5013338;28;20053;-88
2021/05/17 11:15:06;;;;;;;4.95;2.30;;;15.00;88.50;;;;;;5013986;28;20046;-89
2021/05/17 11:18:07;;;;;;;4.50;2.40;;;15.00;87.40;;;;;;5013080;28;20053;-90
2021/05/17 11:20:43;;;;;;;4.47;2.60;;;15.00;88.50;;;;;;5000081;28;20056;-87
2021/05/17 11:23:25;;;;;;;4.85;2.60;;;15.00;89.20;;;;;;5013874;28;20060;-87
2021/05/17 11:28:40;;;;;;;4.68;2.75;;;15.00;89.30;;;;;;5013753;28;20053;-87
2021/05/17 11:31:26;;;;;;;5.85;3.10;;;15.10;89.00;;;;;;5013669;28;20061;-88
2021/05/17 11:34:02;;;;;;;4.53;3.00;;;15.00;88.70;;;;;;5013050;28;20042;-88
2021/05/17 11:36:30;;;;;;;5.15;2.78;;;15.10;88.70;;;;;;5013538;28;20086;-88
2021/05/17 11:39:07;;;;;;;5.38;3.20;;;15.00;89.20;;;;;;5013690;28;20054;-88
2021/05/17 11:41:42;;;;;;;6.97;2.97;;;15.00;89.20;;;;;;5012911;28;20050;-88
2021/05/17 11:44:10;;;;;;;5.05;3.15;;;15.00;90.00;;;;;;5013335;28;20200;-88
2021/05/17 11:46:38;;;;;;;5.50;2.80;;;15.10;90.20;;;;;;5012764;28;20132;-88
2021/05/17 11:49:05;;;;;;;5.15;2.45;;;15.10;90.50;;;;;;5013676;28;20129;-88
2021/05/17 11:51:31;;;;;;;4.43;2.30;;;15.10;90.20;;;;;;5013526;28;20046;-88
2021/05/17 11:53:58;;;;;;;3.53;2.30;;;15.20;89.50;;;;;;5012528;28;20124;-88
2021/05/17 11:56:37;;;;;;;3.90;2.00;;;15.20;89.00;;;;;;5013407;28;20134;-88
2021/05/17 11:59:10;;;;;;;3.03;1.90;;;15.20;88.90;;;;;;5013599;28;20053;-87
2021/05/17 12:01:36;;;;;;;3.83;1.80;;;15.30;89.00;;;;;;4995022;28;20042;-88
2021/05/17 12:04:23;;;;;;;3.58;1.60;;;15.40;87.70;;;;;;5013378;28;20054;-87
2021/05/17 12:06:51;;;;;;;2.90;1.65;;;15.40;87.30;;;;;;5012456;28;20379;-88
2021/05/17 12:09:38;;;;;;;2.95;1.52;;;15.50;87.40;;;;;;5012480;28;20116;-92
2021/05/17 12:12:19;;;;;;;3.63;1.70;;;15.50;87.00;;;;;;5014349;28;20513;-90
2021/05/17 12:14:50;;;;;;;3.25;1.60;;;15.60;84.90;;;;;;5019182;28;20379;-93
2021/05/17 12:17:22;;;;;;;3.65;1.77;;;15.60;84.10;;;;;;5016295;28;20128;-88
2021/05/17 12:19:56;;;;;;;3.30;1.40;;;15.70;84.60;;;;;;5015642;28;20046;-93
2021/05/17 12:22:37;;;;;;;3.15;1.35;;;15.70;84.00;;;;;;5000988;28;20054;-94
2021/05/17 12:25:10;;;;;;;3.05;1.60;;;15.80;83.90;;;;;;4999045;28;20125;-96
2021/05/17 12:27:37;;;;;;;2.65;1.30;;;15.90;84.30;;;;;;4995539;28;20060;-95
2021/05/17 12:30:18;;;;;;;2.45;1.52;;;15.90;84.10;;;;;;5020973;28;20033;-93
2021/05/17 12:32:50;;;;;;;2.28;1.33;;;15.90;84.70;;;;;;5000071;28;20569;-90
2021/05/17 12:35:28;;;;;;;3.22;1.65;;;16.00;84.60;;;;;;5016822;28;20065;-91
2021/05/17 12:37:58;;;;;;;3.63;1.67;;;16.00;85.00;;;;;;5016298;28;20077;-91
2021/05/17 12:40:35;;;;;;;2.63;1.48;;;16.10;85.50;;;;;;5021708;28;20049;-95
2021/05/17 12:43:04;;;;;;;3.35;1.60;;;16.10;85.00;;;;;;5026485;28;20046;-96
2021/05/17 12:45:30;;;;;;;2.72;1.55;;;16.20;84.80;;;;;;5022081;28;20050;-93
2021/05/17 12:47:56;;;;;;;3.13;1.70;;;16.30;85.30;;;;;;5019618;28;20050;-94
2021/05/17 12:50:23;;;;;;;3.88;1.40;;;16.30;85.90;;;;;;5020626;28;20050;-95
2021/05/17 12:53:00;;;;;;;2.35;1.02;;;16.40;85.00;;;;;;5024494;28;20046;-94
2021/05/17 12:55:26;;;;;;;3.38;1.58;;;16.40;83.40;;;;;;5019688;28;20065;-91
2021/05/17 12:57:59;;;;;;;3.05;1.40;;;16.40;85.00;;;;;;5027901;28;20058;-95
2021/05/17 13:00:51;;;;;;;3.45;1.92;;;16.40;83.70;;;;;;5018812;28;20049;-93
2021/05/17 13:03:19;;;;;;;3.33;1.70;;;16.40;84.20;;;;;;5022377;28;20133;-94
2021/05/17 13:05:52;;;;;;;4.18;1.75;;;16.30;86.00;;;;;;5018793;28;20133;-94
2021/05/17 13:08:20;;;;;;;3.75;1.92;;;16.30;86.60;;;;;;5018165;28;20050;-92
2021/05/17 13:10:56;;;;;;;3.47;2.10;;;16.30;85.30;;;;;;5016946;28;20073;-93
2021/05/17 13:13:46;;;;;;;5.05;2.60;;;16.20;85.40;;;;;;5021872;28;20050;-94
2021/05/17 13:16:28;;;;;;;4.43;2.20;;;16.10;84.90;;;;;;5019629;28;20134;-92
2021/05/17 13:19:42;;;;;;;4.78;2.53;;;16.00;86.40;;;;;;5009695;28;20076;-95
2021/05/17 13:33:04;;;;;;;5.22;2.95;;;15.70;88.50;;;;;;5013643;28;20080;-87
2021/05/17 13:35:32;;;;;;;6.35;3.50;;;15.70;88.90;;;;;;5014997;28;20178;-86